Terminal Aerodrome Forecast
Issued by NWS

Home | Current Version | Previous Version | Text Only | Print | Product List | Glossary On
Versions: 1 2 3 4 5 6 7 8 9 10 11 12 13 14 15 16 17 18 19 20 21 22 23 24 25 26 27
757
FTUS41 KBUF 272320
TAFJHW
TAF
KJHW 272320Z 2800/2824 18006KT P6SM SKC
     FM280900 14004KT P6SM SCT250
     FM281400 14008KT P6SM SCT250
     FM281700 14012KT P6SM BKN100
     FM282100 11008KT P6SM VCSH OVC060
      AMD LTD TO CLD VIS AND WIND=

USA.gov is the U.S. government's official web portal to all federal, state and local government web resources and services.